sensor_id;sensor_type;location;lat;lon;timestamp;pressure;altitude;pressure_sealevel;temperature;humidity
36828;BME280;22766;48.042;11.192;2022-11-20T00:01:20;94470.94;;;4.30;100.00
36828;BME280;22766;48.042;11.192;2022-11-20T00:03:48;94470.06;;;4.50;100.00
36828;BME280;22766;48.042;11.192;2022-11-20T00:06:17;94477.47;;;4.44;100.00
36828;BME280;22766;48.042;11.192;2022-11-20T00:08:45;94475.41;;;4.38;100.00
36828;BME280;22766;48.042;11.192;2022-11-20T00:11:14;94480.38;;;4.39;100.00
36828;BME280;22766;48.042;11.192;2022-11-20T00:13:47;94475.78;;;4.33;100.00
36828;BME280;22766;48.042;11.192;2022-11-20T00:16:14;94484.03;;;4.37;100.00
36828;BME280;22766;48.042;11.192;2022-11-20T00:18:41;94479.28;;;4.32;100.00
36828;BME280;22766;48.042;11.192;2022-11-20T00:21:27;94479.16;;;4.34;100.00
36828;BME280;22766;48.042;11.192;2022-11-20T00:23:56;94482.53;;;4.34;100.00
36828;BME280;22766;48.042;11.192;2022-11-20T00:26:25;94480.75;;;4.25;100.00
36828;BME280;22766;48.042;11.192;2022-11-20T00:29:00;94488.41;;;4.25;100.00
36828;BME280;22766;48.042;11.192;2022-11-20T00:31:27;94492.56;;;4.26;100.00
36828;BME280;22766;48.042;11.192;2022-11-20T00:33:54;94489.03;;;4.18;100.00
36828;BME280;22766;48.042;11.192;2022-11-20T00:36:23;94489.91;;;4.07;100.00
36828;BME280;22766;48.042;11.192;2022-11-20T00:38:54;94485.66;;;4.17;100.00
36828;BME280;22766;48.042;11.192;2022-11-20T00:41:22;94494.00;;;4.19;100.00
36828;BME280;22766;48.042;11.192;2022-11-20T00:43:51;94500.22;;;4.26;100.00
36828;BME280;22766;48.042;11.192;2022-11-20T00:46:20;94493.38;;;4.27;100.00
36828;BME280;22766;48.042;11.192;2022-11-20T00:48:46;94496.50;;;4.10;100.00
36828;BME280;22766;48.042;11.192;2022-11-20T00:51:24;94497.75;;;4.15;100.00
36828;BME280;22766;48.042;11.192;2022-11-20T00:53:51;94503.78;;;4.14;100.00
36828;BME280;22766;48.042;11.192;2022-11-20T00:56:19;94502.50;;;4.20;100.00
36828;BME280;22766;48.042;11.192;2022-11-20T00:58:47;94507.03;;;4.16;100.00
36828;BME280;22766;48.042;11.192;2022-11-20T01:01:25;94508.78;;;4.16;100.00
36828;BME280;22766;48.042;11.192;2022-11-20T01:03:55;94501.13;;;4.16;100.00
36828;BME280;22766;48.042;11.192;2022-11-20T01:06:31;94504.47;;;4.46;100.00
36828;BME280;22766;48.042;11.192;2022-11-20T01:09:00;94510.22;;;4.39;100.00
36828;BME280;22766;48.042;11.192;2022-11-20T01:11:30;94509.41;;;4.29;100.00
36828;BME280;22766;48.042;11.192;2022-11-20T01:13:57;94516.25;;;4.28;100.00
36828;BME280;22766;48.042;11.192;2022-11-20T01:16:28;94516.63;;;4.44;100.00
36828;BME280;22766;48.042;11.192;2022-11-20T01:18:57;94507.91;;;4.26;100.00
36828;BME280;22766;48.042;11.192;2022-11-20T01:21:32;94515.28;;;4.50;100.00
36828;BME280;22766;48.042;11.192;2022-11-20T01:24:00;94520.91;;;4.44;100.00
36828;BME280;22766;48.042;11.192;2022-11-20T01:26:32;94519.03;;;4.46;100.00
36828;BME280;22766;48.042;11.192;2022-11-20T01:29:02;94520.19;;;4.62;100.00
36828;BME280;22766;48.042;11.192;2022-11-20T01:31:32;94511.72;;;4.71;100.00
36828;BME280;22766;48.042;11.192;2022-11-20T01:34:01;94520.34;;;4.70;100.00
36828;BME280;22766;48.042;11.192;2022-11-20T01:36:30;94515.94;;;4.72;100.00
36828;BME280;22766;48.042;11.192;2022-11-20T01:39:00;94517.69;;;4.82;100.00
36828;BME280;22766;48.042;11.192;2022-11-20T01:41:29;94519.63;;;4.59;100.00
36828;BME280;22766;48.042;11.192;2022-11-20T01:44:18;94524.75;;;4.59;100.00
36828;BME280;22766;48.042;11.192;2022-11-20T01:47:05;94520.44;;;4.59;100.00
36828;BME280;22766;48.042;11.192;2022-11-20T01:49:44;94522.00;;;4.51;100.00
36828;BME280;22766;48.042;11.192;2022-11-20T01:54:51;94529.09;;;4.68;100.00
36828;BME280;22766;48.042;11.192;2022-11-20T01:57:22;94531.22;;;4.63;100.00
36828;BME280;22766;48.042;11.192;2022-11-20T01:59:57;94534.41;;;4.86;100.00
36828;BME280;22766;48.042;11.192;2022-11-20T02:02:27;94533.81;;;4.72;100.00
36828;BME280;22766;48.042;11.192;2022-11-20T02:04:56;94531.31;;;4.52;100.00
36828;BME280;22766;48.042;11.192;2022-11-20T02:07:25;94533.78;;;4.63;100.00
36828;BME280;22766;48.042;11.192;2022-11-20T02:09:51;94533.81;;;4.72;100.00
36828;BME280;22766;48.042;11.192;2022-11-20T02:12:24;94535.88;;;4.79;100.00
36828;BME280;22766;48.042;11.192;2022-11-20T02:15:09;94533.59;;;4.55;100.00
36828;BME280;22766;48.042;11.192;2022-11-20T02:17:36;94530.44;;;4.72;100.00
36828;BME280;22766;48.042;11.192;2022-11-20T02:20:03;94533.88;;;4.52;100.00
36828;BME280;22766;48.042;11.192;2022-11-20T02:22:42;94539.03;;;4.41;100.00
36828;BME280;22766;48.042;11.192;2022-11-20T02:25:14;94533.38;;;4.37;100.00
36828;BME280;22766;48.042;11.192;2022-11-20T02:27:41;94536.09;;;4.45;100.00
36828;BME280;22766;48.042;11.192;2022-11-20T02:30:08;94537.25;;;4.32;100.00
36828;BME280;22766;48.042;11.192;2022-11-20T02:32:38;94541.47;;;4.22;100.00
36828;BME280;22766;48.042;11.192;2022-11-20T02:35:10;94537.25;;;4.32;100.00
36828;BME280;22766;48.042;11.192;2022-11-20T02:38:01;94537.44;;;4.40;100.00
36828;BME280;22766;48.042;11.192;2022-11-20T02:40:29;94535.09;;;4.27;100.00
36828;BME280;22766;48.042;11.192;2022-11-20T02:42:56;94526.59;;;4.27;100.00
36828;BME280;22766;48.042;11.192;2022-11-20T02:45:24;94532.53;;;4.57;100.00
36828;BME280;22766;48.042;11.192;2022-11-20T02:47:51;94529.31;;;4.55;100.00
36828;BME280;22766;48.042;11.192;2022-11-20T02:50:18;94520.81;;;4.55;100.00
36828;BME280;22766;48.042;11.192;2022-11-20T02:52:45;94523.47;;;4.44;100.00
36828;BME280;22766;48.042;11.192;2022-11-20T02:55:12;94529.75;;;4.40;100.00
36828;BME280;22766;48.042;11.192;2022-11-20T02:57:38;94524.66;;;4.70;100.00
36828;BME280;22766;48.042;11.192;2022-11-20T03:00:05;94523.16;;;4.67;100.00
36828;BME280;22766;48.042;11.192;2022-11-20T03:02:33;94530.56;;;4.40;100.00
36828;BME280;22766;48.042;11.192;2022-11-20T03:05:00;94525.25;;;4.53;100.00
36828;BME280;22766;48.042;11.192;2022-11-20T03:07:26;94529.13;;;4.47;100.00
36828;BME280;22766;48.042;11.192;2022-11-20T03:09:53;94532.41;;;4.29;100.00
36828;BME280;22766;48.042;11.192;2022-11-20T03:12:20;94534.06;;;4.19;100.00
36828;BME280;22766;48.042;11.192;2022-11-20T03:14:46;94526.47;;;4.28;100.00
36828;BME280;22766;48.042;11.192;2022-11-20T03:17:18;94528.03;;;4.20;100.00
36828;BME280;22766;48.042;11.192;2022-11-20T03:19:44;94538.75;;;4.14;100.00
36828;BME280;22766;48.042;11.192;2022-11-20T03:22:11;94531.31;;;4.11;100.00
36828;BME280;22766;48.042;11.192;2022-11-20T03:24:38;94532.28;;;4.10;100.00
36828;BME280;22766;48.042;11.192;2022-11-20T03:27:04;94524.47;;;4.11;100.00
36828;BME280;22766;48.042;11.192;2022-11-20T03:29:31;94525.28;;;4.12;100.00
36828;BME280;22766;48.042;11.192;2022-11-20T03:31:57;94524.72;;;4.29;100.00
36828;BME280;22766;48.042;11.192;2022-11-20T03:34:24;94523.84;;;4.19;100.00
36828;BME280;22766;48.042;11.192;2022-11-20T03:36:50;94514.75;;;4.26;100.00
36828;BME280;22766;48.042;11.192;2022-11-20T03:39:17;94517.63;;;4.32;100.00
36828;BME280;22766;48.042;11.192;2022-11-20T03:41:44;94527.34;;;4.18;100.00
36828;BME280;22766;48.042;11.192;2022-11-20T03:44:11;94519.03;;;4.05;100.00
36828;BME280;22766;48.042;11.192;2022-11-20T03:46:38;94519.44;;;4.21;100.00
36828;BME280;22766;48.042;11.192;2022-11-20T03:49:05;94518.81;;;4.08;100.00
36828;BME280;22766;48.042;11.192;2022-11-20T03:51:33;94521.84;;;4.22;100.00
36828;BME280;22766;48.042;11.192;2022-11-20T03:54:03;94527.22;;;4.19;100.00
36828;BME280;22766;48.042;11.192;2022-11-20T03:56:32;94517.94;;;4.48;100.00
36828;BME280;22766;48.042;11.192;2022-11-20T03:58:59;94521.63;;;4.25;100.00
36828;BME280;22766;48.042;11.192;2022-11-20T04:01:32;94525.28;;;4.12;100.00
36828;BME280;22766;48.042;11.192;2022-11-20T04:03:59;94520.13;;;4.23;100.00
36828;BME280;22766;48.042;11.192;2022-11-20T04:06:28;94523.16;;;4.17;100.00
36828;BME280;22766;48.042;11.192;2022-11-20T04:08:57;94527.72;;;4.13;100.00
36828;BME280;22766;48.042;11.192;2022-11-20T04:11:26;94522.97;;;4.09;100.00
36828;BME280;22766;48.042;11.192;2022-11-20T04:13:58;94527.03;;;4.11;100.00
36828;BME280;22766;48.042;11.192;2022-11-20T04:16:26;94521.72;;;4.24;100.00
36828;BME280;22766;48.042;11.192;2022-11-20T04:18:57;94517.34;;;4.35;100.00
36828;BME280;22766;48.042;11.192;2022-11-20T04:21:25;94520.63;;;4.47;100.00
36828;BME280;22766;48.042;11.192;2022-11-20T04:23:53;94521.16;;;4.71;100.00
36828;BME280;22766;48.042;11.192;2022-11-20T04:26:21;94517.84;;;4.80;100.00
36828;BME280;22766;48.042;11.192;2022-11-20T04:28:48;94513.22;;;4.74;100.00
36828;BME280;22766;48.042;11.192;2022-11-20T04:31:17;94518.72;;;4.69;100.00
36828;BME280;22766;48.042;11.192;2022-11-20T04:33:45;94518.94;;;4.57;100.00
36828;BME280;22766;48.042;11.192;2022-11-20T04:38:40;94521.38;;;4.58;100.00
36828;BME280;22766;48.042;11.192;2022-11-20T04:41:09;94515.88;;;4.63;100.00
36828;BME280;22766;48.042;11.192;2022-11-20T04:43:38;94514.50;;;4.59;100.00
36828;BME280;22766;48.042;11.192;2022-11-20T04:46:05;94520.94;;;4.53;100.00
36828;BME280;22766;48.042;11.192;2022-11-20T04:48:31;94519.19;;;4.84;100.00
36828;BME280;22766;48.042;11.192;2022-11-20T04:51:02;94526.00;;;4.74;100.00
36828;BME280;22766;48.042;11.192;2022-11-20T04:53:30;94527.25;;;4.49;100.00
36828;BME280;22766;48.042;11.192;2022-11-20T04:56:00;94532.94;;;4.32;100.00
36828;BME280;22766;48.042;11.192;2022-11-20T04:58:27;94528.47;;;4.25;100.00
36828;BME280;22766;48.042;11.192;2022-11-20T05:01:01;94534.41;;;4.25;100.00
36828;BME280;22766;48.042;11.192;2022-11-20T05:03:28;94529.38;;;4.24;100.00
36828;BME280;22766;48.042;11.192;2022-11-20T05:05:54;94537.06;;;4.24;100.00
36828;BME280;22766;48.042;11.192;2022-11-20T05:08:21;94531.31;;;4.31;100.00
36828;BME280;22766;48.042;11.192;2022-11-20T05:10:48;94525.22;;;4.23;100.00
36828;BME280;22766;48.042;11.192;2022-11-20T05:13:14;94526.66;;;4.16;100.00
36828;BME280;22766;48.042;11.192;2022-11-20T05:15:41;94523.72;;;4.20;100.00
36828;BME280;22766;48.042;11.192;2022-11-20T05:18:07;94528.31;;;4.47;100.00
36828;BME280;22766;48.042;11.192;2022-11-20T05:20:34;94534.31;;;4.36;100.00
36828;BME280;22766;48.042;11.192;2022-11-20T05:23:02;94533.56;;;4.25;100.00
36828;BME280;22766;48.042;11.192;2022-11-20T05:25:29;94533.91;;;4.41;100.00
36828;BME280;22766;48.042;11.192;2022-11-20T05:27:55;94539.84;;;4.41;100.00
36828;BME280;22766;48.042;11.192;2022-11-20T05:30:22;94532.34;;;4.19;100.00
36828;BME280;22766;48.042;11.192;2022-11-20T05:32:48;94529.38;;;4.24;100.00
36828;BME280;22766;48.042;11.192;2022-11-20T05:35:15;94534.19;;;4.38;100.00
36828;BME280;22766;48.042;11.192;2022-11-20T05:37:42;94532.91;;;4.53;100.00
36828;BME280;22766;48.042;11.192;2022-11-20T05:40:09;94528.41;;;4.66;100.00
36828;BME280;22766;48.042;11.192;2022-11-20T05:42:36;94526.31;;;4.50;100.00
36828;BME280;22766;48.042;11.192;2022-11-20T05:45:03;94532.88;;;4.43;100.00
36828;BME280;22766;48.042;11.192;2022-11-20T05:47:33;94537.38;;;4.30;100.00
36828;BME280;22766;48.042;11.192;2022-11-20T05:50:01;94535.97;;;4.47;100.00
36828;BME280;22766;48.042;11.192;2022-11-20T05:52:29;94529.34;;;4.35;100.00
36828;BME280;22766;48.042;11.192;2022-11-20T05:54:56;94530.28;;;4.64;100.00
36828;BME280;22766;48.042;11.192;2022-11-20T05:57:22;94531.22;;;4.63;100.00
36828;BME280;22766;48.042;11.192;2022-11-20T05:59:49;94533.72;;;4.53;100.00
36828;BME280;22766;48.042;11.192;2022-11-20T06:02:16;94535.00;;;4.38;100.00
36828;BME280;22766;48.042;11.192;2022-11-20T06:04:42;94540.44;;;4.54;100.00
36828;BME280;22766;48.042;11.192;2022-11-20T06:07:09;94535.59;;;4.51;100.00
36828;BME280;22766;48.042;11.192;2022-11-20T06:09:36;94538.25;;;4.40;100.00
36828;BME280;22766;48.042;11.192;2022-11-20T06:12:03;94538.59;;;4.36;100.00
36828;BME280;22766;48.042;11.192;2022-11-20T06:14:30;94546.03;;;4.18;100.00
36828;BME280;22766;48.042;11.192;2022-11-20T06:16:56;94540.00;;;3.99;100.00
36828;BME280;22766;48.042;11.192;2022-11-20T06:19:23;94539.88;;;4.00;100.00
36828;BME280;22766;48.042;11.192;2022-11-20T06:21:50;94535.75;;;4.09;100.00
36828;BME280;22766;48.042;11.192;2022-11-20T06:24:17;94531.66;;;3.97;100.00
36828;BME280;22766;48.042;11.192;2022-11-20T06:26:44;94537.19;;;4.02;100.00
36828;BME280;22766;48.042;11.192;2022-11-20T06:29:11;94543.72;;;3.95;100.00
36828;BME280;22766;48.042;11.192;2022-11-20T06:31:38;94543.13;;;4.02;100.00
36828;BME280;22766;48.042;11.192;2022-11-20T06:34:05;94546.34;;;4.04;100.00
36828;BME280;22766;48.042;11.192;2022-11-20T06:36:35;94544.72;;;4.03;100.00
36828;BME280;22766;48.042;11.192;2022-11-20T06:39:03;94549.03;;;4.03;100.00
36828;BME280;22766;48.042;11.192;2022-11-20T06:41:30;94544.72;;;4.03;100.00
36828;BME280;22766;48.042;11.192;2022-11-20T06:43:56;94551.00;;;3.99;100.00
36828;BME280;22766;48.042;11.192;2022-11-20T06:46:23;94562.28;;;3.97;100.00
36828;BME280;22766;48.042;11.192;2022-11-20T06:48:50;94554.25;;;4.01;100.00
36828;BME280;22766;48.042;11.192;2022-11-20T06:51:17;94559.28;;;4.12;100.00
36828;BME280;22766;48.042;11.192;2022-11-20T06:53:44;94553.06;;;4.05;100.00
36828;BME280;22766;48.042;11.192;2022-11-20T06:56:11;94569.50;;;4.12;100.00
36828;BME280;22766;48.042;11.192;2022-11-20T06:58:37;94566.41;;;4.09;100.00
36828;BME280;22766;48.042;11.192;2022-11-20T07:01:07;94559.69;;;4.08;100.00
36828;BME280;22766;48.042;11.192;2022-11-20T07:03:35;94571.09;;;4.24;100.00
36828;BME280;22766;48.042;11.192;2022-11-20T07:06:03;94569.84;;;4.19;100.00
36828;BME280;22766;48.042;11.192;2022-11-20T07:08:31;94579.25;;;4.18;100.00
36828;BME280;22766;48.042;11.192;2022-11-20T07:10:59;94576.50;;;4.10;100.00
36828;BME280;22766;48.042;11.192;2022-11-20T07:13:29;94579.06;;;4.10;100.00
36828;BME280;22766;48.042;11.192;2022-11-20T07:16:00;94583.91;;;4.13;100.00
36828;BME280;22766;48.042;11.192;2022-11-20T07:18:27;94585.22;;;4.08;100.00
36828;BME280;22766;48.042;11.192;2022-11-20T07:20:54;94581.28;;;4.04;100.00
36828;BME280;22766;48.042;11.192;2022-11-20T07:23:21;94583.91;;;4.13;100.00
36828;BME280;22766;48.042;11.192;2022-11-20T07:25:47;94583.66;;;4.16;100.00
36828;BME280;22766;48.042;11.192;2022-11-20T07:28:14;94579.78;;;4.22;100.00
36828;BME280;22766;48.042;11.192;2022-11-20T07:30:40;94580.75;;;4.21;100.00
36828;BME280;22766;48.042;11.192;2022-11-20T07:33:07;94588.53;;;4.19;100.00
36828;BME280;22766;48.042;11.192;2022-11-20T07:35:33;94583.38;;;4.30;100.00
36828;BME280;22766;48.042;11.192;2022-11-20T07:38:00;94583.28;;;4.41;100.00
36828;BME280;22766;48.042;11.192;2022-11-20T07:40:27;94582.53;;;4.30;100.00
36828;BME280;22766;48.042;11.192;2022-11-20T07:42:54;94588.13;;;4.35;100.00
36828;BME280;22766;48.042;11.192;2022-11-20T07:45:23;94588.13;;;4.35;100.00
36828;BME280;22766;48.042;11.192;2022-11-20T07:47:50;94580.06;;;4.39;100.00
36828;BME280;22766;48.042;11.192;2022-11-20T07:50:18;94593.09;;;4.36;100.00
36828;BME280;22766;48.042;11.192;2022-11-20T07:52:44;94584.94;;;4.42;100.00
36828;BME280;22766;48.042;11.192;2022-11-20T07:55:11;94585.50;;;4.46;100.00
36828;BME280;22766;48.042;11.192;2022-11-20T07:57:38;94575.69;;;4.51;100.00
36828;BME280;22766;48.042;11.192;2022-11-20T08:00:06;94580.78;;;4.51;100.00
36828;BME280;22766;48.042;11.192;2022-11-20T08:02:39;94586.09;;;4.59;100.00
36828;BME280;22766;48.042;11.192;2022-11-20T08:05:07;94592.13;;;4.58;100.00
36828;BME280;22766;48.042;11.192;2022-11-20T08:07:38;94592.25;;;4.56;100.00
36828;BME280;22766;48.042;11.192;2022-11-20T08:10:06;94595.13;;;4.63;100.00
36828;BME280;22766;48.042;11.192;2022-11-20T08:12:34;94584.91;;;4.63;100.00
36828;BME280;22766;48.042;11.192;2022-11-20T08:15:19;94596.50;;;4.67;100.00
36828;BME280;22766;48.042;11.192;2022-11-20T08:17:46;94592.38;;;4.75;100.00
36828;BME280;22766;48.042;11.192;2022-11-20T08:20:32;94587.94;;;4.78;100.00
36828;BME280;22766;48.042;11.192;2022-11-20T08:23:00;94597.84;;;4.92;100.00
36828;BME280;22766;48.042;11.192;2022-11-20T08:25:30;94593.50;;;4.92;100.00
36828;BME280;22766;48.042;11.192;2022-11-20T08:28:05;94587.16;;;4.87;100.00
36828;BME280;22766;48.042;11.192;2022-11-20T08:30:46;94588.56;;;5.00;100.00
36828;BME280;22766;48.042;11.192;2022-11-20T08:33:12;94586.97;;;4.99;100.00
36828;BME280;22766;48.042;11.192;2022-11-20T08:35:39;94593.41;;;4.94;100.00
36828;BME280;22766;48.042;11.192;2022-11-20T08:38:08;94601.94;;;5.13;100.00
36828;BME280;22766;48.042;11.192;2022-11-20T08:40:35;94587.75;;;5.00;100.00
36828;BME280;22766;48.042;11.192;2022-11-20T08:43:01;94586.84;;;5.01;100.00
36828;BME280;22766;48.042;11.192;2022-11-20T08:45:28;94591.13;;;5.00;100.00
36828;BME280;22766;48.042;11.192;2022-11-20T08:48:01;94600.72;;;5.08;100.00
36828;BME280;22766;48.042;11.192;2022-11-20T08:50:29;94586.50;;;5.24;100.00
36828;BME280;22766;48.042;11.192;2022-11-20T08:53:04;94587.63;;;5.31;100.00
36828;BME280;22766;48.042;11.192;2022-11-20T08:55:31;94592.47;;;5.34;100.00
36828;BME280;22766;48.042;11.192;2022-11-20T08:57:58;94587.72;;;5.20;100.00
36828;BME280;22766;48.042;11.192;2022-11-20T09:00:29;94592.03;;;5.20;100.00
36828;BME280;22766;48.042;11.192;2022-11-20T09:02:55;94585.06;;;5.31;100.00
36828;BME280;22766;48.042;11.192;2022-11-20T09:05:22;94583.91;;;5.54;100.00
36828;BME280;22766;48.042;11.192;2022-11-20T09:07:48;94582.25;;;5.53;100.00
36828;BME280;22766;48.042;11.192;2022-11-20T09:10:15;94585.25;;;5.49;100.00
36828;BME280;22766;48.042;11.192;2022-11-20T09:12:50;94578.13;;;5.72;100.00
36828;BME280;22766;48.042;11.192;2022-11-20T09:15:19;94590.25;;;5.60;100.00
36828;BME280;22766;48.042;11.192;2022-11-20T09:17:52;94582.59;;;5.79;100.00
36828;BME280;22766;48.042;11.192;2022-11-20T09:20:19;94582.06;;;5.95;100.00
36828;BME280;22766;48.042;11.192;2022-11-20T09:22:46;94579.63;;;5.84;100.00
36828;BME280;22766;48.042;11.192;2022-11-20T09:25:13;94579.63;;;5.84;100.00
36828;BME280;22766;48.042;11.192;2022-11-20T09:27:40;94579.78;;;6.20;100.00
36828;BME280;22766;48.042;11.192;2022-11-20T09:30:10;94580.06;;;7.19;100.00
36828;BME280;22766;48.042;11.192;2022-11-20T09:32:38;94587.72;;;7.56;95.42
36828;BME280;22766;48.042;11.192;2022-11-20T09:35:05;94583.75;;;8.24;93.03
36828;BME280;22766;48.042;11.192;2022-11-20T09:37:32;94582.31;;;7.94;91.08
36828;BME280;22766;48.042;11.192;2022-11-20T09:39:58;94566.81;;;8.21;86.31
36828;BME280;22766;48.042;11.192;2022-11-20T09:42:40;94578.16;;;7.93;86.80
36828;BME280;22766;48.042;11.192;2022-11-20T09:48:08;94565.59;;;6.91;97.82
36828;BME280;22766;48.042;11.192;2022-11-20T09:50:54;94573.94;;;7.03;99.68
36828;BME280;22766;48.042;11.192;2022-11-20T09:55:54;94566.38;;;6.92;99.21
36828;BME280;22766;48.042;11.192;2022-11-20T09:58:47;94563.38;;;7.06;100.00
36828;BME280;22766;48.042;11.192;2022-11-20T10:01:17;94578.50;;;7.36;96.41
36828;BME280;22766;48.042;11.192;2022-11-20T10:07:29;94559.03;;;8.74;81.21
36828;BME280;22766;48.042;11.192;2022-11-20T10:10:15;94557.28;;;8.75;83.48
36828;BME280;22766;48.042;11.192;2022-11-20T10:24:29;94559.44;;;7.11;91.42
36828;BME280;22766;48.042;11.192;2022-11-20T10:32:39;94567.03;;;7.30;92.80
36828;BME280;22766;48.042;11.192;2022-11-20T10:38:03;94571.66;;;7.54;95.40
36828;BME280;22766;48.042;11.192;2022-11-20T10:43:12;94559.84;;;7.61;91.70
36828;BME280;22766;48.042;11.192;2022-11-20T10:45:53;94568.22;;;7.63;90.29
36828;BME280;22766;48.042;11.192;2022-11-20T10:48:24;94566.19;;;7.39;93.57
36828;BME280;22766;48.042;11.192;2022-11-20T11:01:41;94562.63;;;7.23;94.01
36828;BME280;22766;48.042;11.192;2022-11-20T11:06:51;94563.50;;;7.31;93.45
36828;BME280;22766;48.042;11.192;2022-11-20T11:09:28;94557.19;;;7.26;92.22
36828;BME280;22766;48.042;11.192;2022-11-20T11:11:58;94557.13;;;7.18;89.38
36828;BME280;22766;48.042;11.192;2022-11-20T11:14:42;94552.69;;;7.10;92.30
36828;BME280;22766;48.042;11.192;2022-11-20T11:17:20;94534.44;;;7.13;93.73
36828;BME280;22766;48.042;11.192;2022-11-20T11:22:28;94532.44;;;7.34;91.64
36828;BME280;22766;48.042;11.192;2022-11-20T11:24:56;94541.00;;;7.43;93.32
36828;BME280;22766;48.042;11.192;2022-11-20T11:27:23;94529.44;;;7.56;90.33
36828;BME280;22766;48.042;11.192;2022-11-20T11:30:02;94535.47;;;7.47;88.74
36828;BME280;22766;48.042;11.192;2022-11-20T11:32:29;94531.75;;;7.32;89.87
36828;BME280;22766;48.042;11.192;2022-11-20T11:35:04;94532.41;;;7.62;89.14
36828;BME280;22766;48.042;11.192;2022-11-20T11:37:36;94520.78;;;8.28;82.54
36828;BME280;22766;48.042;11.192;2022-11-20T11:40:04;94521.75;;;8.27;79.68
36828;BME280;22766;48.042;11.192;2022-11-20T11:42:55;94526.75;;;7.93;82.06
36828;BME280;22766;48.042;11.192;2022-11-20T11:45:23;94531.53;;;7.71;85.79
36828;BME280;22766;48.042;11.192;2022-11-20T11:47:51;94527.97;;;7.72;88.89
36828;BME280;22766;48.042;11.192;2022-11-20T11:50:22;94527.19;;;7.53;87.82
36828;BME280;22766;48.042;11.192;2022-11-20T11:58:16;94520.47;;;7.25;95.60
36828;BME280;22766;48.042;11.192;2022-11-20T12:01:00;94523.84;;;6.99;97.89
36828;BME280;22766;48.042;11.192;2022-11-20T12:03:35;94528.13;;;6.71;100.00
36828;BME280;22766;48.042;11.192;2022-11-20T12:06:11;94525.25;;;6.84;100.00
36828;BME280;22766;48.042;11.192;2022-11-20T12:08:50;94524.16;;;6.86;100.00
36828;BME280;22766;48.042;11.192;2022-11-20T12:11:31;94532.09;;;6.56;100.00
36828;BME280;22766;48.042;11.192;2022-11-20T12:14:18;94538.72;;;6.49;100.00
36828;BME280;22766;48.042;11.192;2022-11-20T12:16:50;94528.91;;;6.16;100.00
36828;BME280;22766;48.042;11.192;2022-11-20T12:19:19;94532.06;;;6.00;100.00
36828;BME280;22766;48.042;11.192;2022-11-20T12:21:53;94528.25;;;5.85;100.00
36828;BME280;22766;48.042;11.192;2022-11-20T12:30:11;94534.97;;;5.57;100.00
36828;BME280;22766;48.042;11.192;2022-11-20T12:44:52;94517.34;;;5.74;100.00
36828;BME280;22766;48.042;11.192;2022-11-20T12:53:36;94516.78;;;5.70;100.00
36828;BME280;22766;48.042;11.192;2022-11-20T13:07:06;94511.25;;;5.65;100.00
36828;BME280;22766;48.042;11.192;2022-11-20T13:09:40;94504.78;;;5.80;100.00
36828;BME280;22766;48.042;11.192;2022-11-20T13:12:15;94499.28;;;5.94;100.00
36828;BME280;22766;48.042;11.192;2022-11-20T13:14:53;94497.13;;;5.90;100.00
36828;BME280;22766;48.042;11.192;2022-11-20T13:19:56;94496.19;;;5.62;100.00
36828;BME280;22766;48.042;11.192;2022-11-20T13:22:42;94486.19;;;5.78;100.00
36828;BME280;22766;48.042;11.192;2022-11-20T13:25:10;94486.03;;;5.70;100.00
36828;BME280;22766;48.042;11.192;2022-11-20T13:27:48;94488.06;;;5.57;100.00
36828;BME280;22766;48.042;11.192;2022-11-20T13:30:17;94479.84;;;5.82;100.00
36828;BME280;22766;48.042;11.192;2022-11-20T13:32:54;94484.84;;;5.84;100.00
36828;BME280;22766;48.042;11.192;2022-11-20T13:38:11;94476.78;;;5.88;100.00
36828;BME280;22766;48.042;11.192;2022-11-20T13:40:57;94474.88;;;6.00;100.00
36828;BME280;22766;48.042;11.192;2022-11-20T13:46:08;94473.75;;;6.12;100.00
36828;BME280;22766;48.042;11.192;2022-11-20T13:48:40;94468.38;;;6.15;100.00
36828;BME280;22766;48.042;11.192;2022-11-20T13:51:37;94471.44;;;6.28;100.00
36828;BME280;22766;48.042;11.192;2022-11-20T13:59:57;94461.25;;;5.99;100.00
36828;BME280;22766;48.042;11.192;2022-11-20T14:02:29;94465.81;;;6.05;100.00
36828;BME280;22766;48.042;11.192;2022-11-20T14:04:58;94474.69;;;6.20;100.00
36828;BME280;22766;48.042;11.192;2022-11-20T14:07:34;94475.50;;;6.21;100.00
36828;BME280;22766;48.042;11.192;2022-11-20T14:10:03;94485.25;;;6.08;100.00
36828;BME280;22766;48.042;11.192;2022-11-20T14:12:31;94491.28;;;6.26;100.00
36828;BME280;22766;48.042;11.192;2022-11-20T14:14:59;94489.72;;;5.96;100.00
36828;BME280;22766;48.042;11.192;2022-11-20T14:17:30;94481.22;;;5.67;100.00
36828;BME280;22766;48.042;11.192;2022-11-20T14:20:05;94472.47;;;5.60;100.00
36828;BME280;22766;48.042;11.192;2022-11-20T14:22:32;94481.06;;;5.59;100.00
36828;BME280;22766;48.042;11.192;2022-11-20T14:27:40;94479.19;;;5.61;100.00
36828;BME280;22766;48.042;11.192;2022-11-20T14:30:25;94482.56;;;5.52;100.00
36828;BME280;22766;48.042;11.192;2022-11-20T14:33:00;94475.94;;;5.59;100.00
36828;BME280;22766;48.042;11.192;2022-11-20T14:35:29;94467.59;;;5.47;100.00
36828;BME280;22766;48.042;11.192;2022-11-20T14:37:57;94465.31;;;5.54;100.00
36828;BME280;22766;48.042;11.192;2022-11-20T14:40:35;94465.56;;;5.32;100.00
36828;BME280;22766;48.042;11.192;2022-11-20T14:43:26;94468.69;;;5.35;100.00
36828;BME280;22766;48.042;11.192;2022-11-20T14:46:05;94460.19;;;5.35;100.00
36828;BME280;22766;48.042;11.192;2022-11-20T14:48:42;94470.94;;;5.29;100.00
36828;BME280;22766;48.042;11.192;2022-11-20T14:51:11;94467.56;;;5.38;100.00
36828;BME280;22766;48.042;11.192;2022-11-20T14:53:38;94473.25;;;5.51;100.00
36828;BME280;22766;48.042;11.192;2022-11-20T14:56:05;94461.78;;;5.64;100.00